Weather Underground History

Daily Summary for May 23, 2019 Units:  Metric    English   Both
« Previous Day
Next Day »
Daily Weekly Monthly Yearly Custom
  Current: High: Low: Average:
Temperature: 10.7 °C 10.7 °C 7.7 °C 8.9 °C
Dew Point: 9.2 °C 9.2 °C 6.2 °C 7.1 °C
Humidity: 90% 92% 81% 89%
Wind Speed: 0.0km/h 3.2km/h 0.0km/h 0.1km/h
Wind Gust: 3.2km/h 4.8km/h - -
WindCalm - - NW
Pressure: 1015.7 hPa 1016.4 hPa 1015.3 hPa -
Precipitation: 0.0 mm      
Historical Graphs
 
 
Tabular Data for May 23, 2019
Time Temperature Dew Point Pressure Wind Wind Speed Wind Gust Humidity Rainfall Rate (Hourly) solar
00:04 10.7 °C 7.6 °C 1016.2 hPa Calm     81% 0.0 mm 0.00 W/m2
00:09 10.7 °C 7.7 °C 1016.2 hPa Calm     82% 0.0 mm 0.00 W/m2
00:14 10.6 °C 7.6 °C 1016.2 hPa Calm     82% 0.0 mm 0.00 W/m2
00:19 10.4 °C 7.4 °C 1016.2 hPa Calm     82% 0.0 mm 0.00 W/m2
00:25 10.3 °C 7.6 °C 1016.1 hPa Calm     83% 0.0 mm 0.00 W/m2
00:29 10.2 °C 7.5 °C 1016.2 hPa Calm     83% 0.0 mm 0.00 W/m2
00:34 10.2 °C 7.4 °C 1016.2 hPa Calm     83% 0.0 mm 0.00 W/m2
00:39 10.1 °C 7.5 °C 1016.2 hPa Calm     84% 0.0 mm 0.00 W/m2
00:44 10.1 °C 7.5 °C 1016.1 hPa Calm     84% 0.0 mm 0.00 W/m2
00:49 10.2 °C 7.8 °C 1016.1 hPa Calm     85% 0.0 mm 0.00 W/m2
00:54 10.3 °C 7.9 °C 1016.2 hPa Calm     85% 0.0 mm 0.00 W/m2
00:59 10.4 °C 7.9 °C 1016.2 hPa Calm   4.8 km/h 84% 0.0 mm 0.00 W/m2
01:04 10.5 °C 7.9 °C 1016.2 hPa Calm     84% 0.0 mm 0.00 W/m2
01:09 10.5 °C 7.9 °C 1016.2 hPa NW 1.6 km/h 4.8 km/h 84% 0.0 mm 0.00 W/m2
01:14 10.4 °C 7.7 °C 1016.2 hPa Calm     83% 0.0 mm 0.00 W/m2
01:19 10.3 °C 7.6 °C 1016.3 hPa Calm     83% 0.0 mm 0.00 W/m2
01:24 10.3 °C 7.5 °C 1016.3 hPa Calm     83% 0.0 mm 0.00 W/m2
01:29 10.1 °C 7.4 °C 1016.4 hPa Calm     83% 0.0 mm 0.00 W/m2
01:34 10.0 °C 7.4 °C 1016.3 hPa Calm     84% 0.0 mm 0.00 W/m2
01:39 9.9 °C 7.3 °C 1016.2 hPa Calm     84% 0.0 mm 0.00 W/m2
01:44 9.8 °C 7.2 °C 1016.2 hPa Calm     84% 0.0 mm 0.00 W/m2
01:49 9.7 °C 7.3 °C 1016.2 hPa Calm     85% 0.0 mm 0.00 W/m2
01:54 9.5 °C 7.1 °C 1016.2 hPa Calm     85% 0.0 mm 0.00 W/m2
02:00 9.4 °C 7.0 °C 1016.2 hPa Calm     85% 0.0 mm 0.00 W/m2
02:04 9.3 °C 7.1 °C 1016.1 hPa Calm     86% 0.0 mm 0.00 W/m2
02:09 9.2 °C 7.0 °C 1016.1 hPa Calm     86% 0.0 mm 0.00 W/m2
02:14 9.2 °C 6.9 °C 1016.1 hPa Calm     86% 0.0 mm 0.00 W/m2
02:19 9.1 °C 7.0 °C 1016.0 hPa Calm     87% 0.0 mm 0.00 W/m2
02:24 9.1 °C 7.0 °C 1016.0 hPa Calm     87% 0.0 mm 0.00 W/m2
02:29 8.9 °C 6.9 °C 1015.9 hPa Calm     87% 0.0 mm 0.00 W/m2
02:34 8.9 °C 7.1 °C 1015.9 hPa Calm     88% 0.0 mm 0.00 W/m2
02:39 8.9 °C 7.0 °C 1015.9 hPa Calm     88% 0.0 mm 0.00 W/m2
02:44 8.8 °C 7.0 °C 1015.9 hPa Calm     88% 0.0 mm 0.00 W/m2
02:49 8.8 °C 7.0 °C 1015.9 hPa Calm     88% 0.0 mm 0.00 W/m2
02:54 8.8 °C 6.9 °C 1015.9 hPa Calm     88% 0.0 mm 0.00 W/m2
02:59 8.7 °C 6.8 °C 1015.9 hPa Calm     88% 0.0 mm 0.00 W/m2
03:04 8.6 °C 6.7 °C 1015.8 hPa Calm     88% 0.0 mm 0.00 W/m2
03:09 8.4 °C 6.6 °C 1015.8 hPa Calm     88% 0.0 mm 0.00 W/m2
03:14 8.3 °C 6.5 °C 1015.8 hPa Calm     88% 0.0 mm 0.00 W/m2
03:19 8.2 °C 6.4 °C 1015.9 hPa Calm     88% 0.0 mm 0.00 W/m2
03:24 8.2 °C 6.5 °C 1015.8 hPa Calm     89% 0.0 mm 0.00 W/m2
03:29 8.1 °C 6.4 °C 1015.8 hPa Calm     89% 0.0 mm 0.00 W/m2
03:34 8.1 °C 6.4 °C 1015.9 hPa Calm     89% 0.0 mm 0.00 W/m2
03:39 8.1 °C 6.4 °C 1015.7 hPa Calm     89% 0.0 mm 0.00 W/m2
03:44 8.1 °C 6.4 °C 1015.6 hPa Calm     89% 0.0 mm 0.00 W/m2
03:50 8.1 °C 6.5 °C 1015.6 hPa Calm     90% 0.0 mm 0.00 W/m2
03:54 8.0 °C 6.3 °C 1015.7 hPa Calm     89% 0.0 mm 0.00 W/m2
03:59 7.9 °C 6.2 °C 1015.6 hPa Calm     89% 0.0 mm 0.00 W/m2
04:04 7.8 °C 6.3 °C 1015.7 hPa Calm     90% 0.0 mm 0.00 W/m2
04:09 7.8 °C 6.3 °C 1015.6 hPa Calm     90% 0.0 mm 0.00 W/m2
04:14 7.8 °C 6.3 °C 1015.6 hPa Calm     90% 0.0 mm 0.00 W/m2
04:19 7.8 °C 6.3 °C 1015.5 hPa Calm     90% 0.0 mm 0.00 W/m2
04:24 7.9 °C 6.4 °C 1015.5 hPa Calm     90% 0.0 mm 0.00 W/m2
04:29 7.9 °C 6.4 °C 1015.4 hPa Calm     90% 0.0 mm 0.00 W/m2
04:34 7.9 °C 6.4 °C 1015.5 hPa Calm     90% 0.0 mm 0.00 W/m2
04:39 7.8 °C 6.3 °C 1015.4 hPa Calm     90% 0.0 mm 0.00 W/m2
04:44 7.8 °C 6.2 °C 1015.4 hPa Calm     90% 0.0 mm 0.00 W/m2
04:49 7.8 °C 6.3 °C 1015.4 hPa Calm     90% 0.0 mm 0.00 W/m2
04:55 7.8 °C 6.5 °C 1015.4 hPa Calm     91% 0.0 mm 0.00 W/m2
04:59 7.8 °C 6.5 °C 1015.4 hPa Calm     91% 0.0 mm 7.00 W/m2
05:04 7.8 °C 6.5 °C 1015.4 hPa Calm     91% 0.0 mm 9.00 W/m2
05:09 7.8 °C 6.4 °C 1015.4 hPa Calm     91% 0.0 mm 11.00 W/m2
05:14 7.7 °C 6.3 °C 1015.5 hPa Calm     91% 0.0 mm 12.00 W/m2
05:19 7.7 °C 6.3 °C 1015.4 hPa Calm     91% 0.0 mm 16.00 W/m2
05:24 7.7 °C 6.3 °C 1015.4 hPa Calm     91% 0.0 mm 19.00 W/m2
05:29 7.8 °C 6.4 °C 1015.4 hPa Calm     91% 0.0 mm 23.00 W/m2
05:34 7.8 °C 6.4 °C 1015.4 hPa Calm     91% 0.0 mm 26.00 W/m2
05:39 7.9 °C 6.5 °C 1015.4 hPa Calm     91% 0.0 mm 26.00 W/m2
05:44 7.9 °C 6.7 °C 1015.4 hPa Calm     92% 0.0 mm 30.00 W/m2
05:49 8.0 °C 6.8 °C 1015.4 hPa Calm     92% 0.0 mm 35.00 W/m2
05:54 8.0 °C 6.8 °C 1015.5 hPa Calm     92% 0.0 mm 42.00 W/m2
05:59 8.0 °C 6.8 °C 1015.5 hPa Calm     92% 0.0 mm 46.00 W/m2
06:04 8.0 °C 6.8 °C 1015.4 hPa Calm     92% 0.0 mm 51.00 W/m2
06:09 8.1 °C 6.8 °C 1015.3 hPa Calm     92% 0.0 mm 54.00 W/m2
06:14 8.1 °C 6.9 °C 1015.4 hPa Calm     92% 0.0 mm 54.00 W/m2
06:19 8.2 °C 6.9 °C 1015.5 hPa Calm     92% 0.0 mm 58.00 W/m2
06:24 8.2 °C 7.0 °C 1015.5 hPa Calm     92% 0.0 mm 60.00 W/m2
06:29 8.3 °C 7.1 °C 1015.5 hPa Calm     92% 0.0 mm 62.00 W/m2
06:34 8.3 °C 7.1 °C 1015.5 hPa Calm     92% 0.0 mm 67.00 W/m2
06:40 8.4 °C 7.2 °C 1015.5 hPa Calm     92% 0.0 mm 76.00 W/m2
06:44 8.4 °C 7.2 °C 1015.6 hPa Calm     92% 0.0 mm 104.00 W/m2
06:49 8.5 °C 7.3 °C 1015.6 hPa Calm     92% 0.0 mm 120.00 W/m2
06:54 8.6 °C 7.4 °C 1015.7 hPa Calm     92% 0.0 mm 113.00 W/m2
06:59 8.7 °C 7.5 °C 1015.7 hPa Calm     92% 0.0 mm 127.00 W/m2
07:04 8.8 °C 7.6 °C 1015.7 hPa Calm     92% 0.0 mm 139.00 W/m2
07:09 9.0 °C 7.8 °C 1015.8 hPa Calm     92% 0.0 mm 142.00 W/m2
07:14 9.1 °C 7.9 °C 1015.8 hPa Calm     92% 0.0 mm 104.00 W/m2
07:19 9.2 °C 7.9 °C 1015.8 hPa Calm     92% 0.0 mm 100.00 W/m2
07:24 9.2 °C 7.8 °C 1015.9 hPa Calm   3.2 km/h 91% 0.0 mm 209.00 W/m2
07:29 9.4 °C 8.2 °C 1015.7 hPa Calm     92% 0.0 mm 225.00 W/m2
07:34 9.6 °C 8.2 °C 1015.8 hPa Calm     91% 0.0 mm 174.00 W/m2
07:39 9.7 °C 8.5 °C 1015.8 hPa Calm     92% 0.0 mm 220.00 W/m2
07:44 9.9 °C 8.5 °C 1015.8 hPa NW 1.6 km/h 4.8 km/h 91% 0.0 mm 274.00 W/m2
07:49 10.2 °C 8.8 °C 1015.8 hPa Calm     91% 0.0 mm 301.00 W/m2
07:54 10.3 °C 8.9 °C 1015.7 hPa Calm     91% 0.0 mm 264.00 W/m2
07:59 10.5 °C 8.9 °C 1015.7 hPa NW 3.2 km/h 3.2 km/h 90% 0.0 mm 327.00 W/m2
08:04 10.7 °C 9.2 °C 1015.7 hPa Calm   3.2 km/h 90% 0.0 mm 396.00 W/m2
Compliments of Weather Underground - 3 mb